sensor_id;sensor_type;location;lat;lon;timestamp;temperature;humidity
67763;DHT22;54566;52.022;5.582;2024-03-23T07:55:42;7.00;99.90
67763;DHT22;54566;52.022;5.582;2024-03-23T07:58:10;7.10;99.90
67763;DHT22;54566;52.022;5.582;2024-03-23T08:00:41;7.20;99.90
67763;DHT22;54566;52.022;5.582;2024-03-23T08:03:09;7.30;99.90
67763;DHT22;54566;52.022;5.582;2024-03-23T08:05:35;7.40;99.90
67763;DHT22;54566;52.022;5.582;2024-03-23T08:08:16;7.50;99.90
67763;DHT22;54566;52.022;5.582;2024-03-23T08:10:49;7.60;99.90
67763;DHT22;54566;52.022;5.582;2024-03-23T08:13:16;7.70;99.90
67763;DHT22;54566;52.022;5.582;2024-03-23T08:15:51;7.90;99.90
67763;DHT22;54566;52.022;5.582;2024-03-23T08:21:52;8.00;99.90
67763;DHT22;54566;52.022;5.582;2024-03-23T08:28:31;7.80;99.90
67763;DHT22;54566;52.022;5.582;2024-03-23T08:31:51;7.70;99.90
67763;DHT22;54566;52.022;5.582;2024-03-23T08:41:53;7.60;99.90
67763;DHT22;54566;52.022;5.582;2024-03-23T08:44:35;7.50;99.90
67763;DHT22;54566;52.022;5.582;2024-03-23T08:47:10;7.40;99.90
67763;DHT22;54566;52.022;5.582;2024-03-23T08:49:52;7.40;99.90
67763;DHT22;54566;52.022;5.582;2024-03-23T08:52:18;7.40;99.90
67763;DHT22;54566;52.022;5.582;2024-03-23T08:54:45;7.40;99.90
67763;DHT22;54566;52.022;5.582;2024-03-23T08:57:20;7.40;99.90
67763;DHT22;54566;52.022;5.582;2024-03-23T09:00:12;7.40;99.90
67763;DHT22;54566;52.022;5.582;2024-03-23T09:03:08;7.40;99.90
67763;DHT22;54566;52.022;5.582;2024-03-23T09:05:39;7.50;99.90
67763;DHT22;54566;52.022;5.582;2024-03-23T09:08:13;7.70;99.90
67763;DHT22;54566;52.022;5.582;2024-03-23T09:11:10;8.00;99.90
67763;DHT22;54566;52.022;5.582;2024-03-23T09:13:48;8.40;99.90
67763;DHT22;54566;52.022;5.582;2024-03-23T09:16:37;8.60;99.90
67763;DHT22;54566;52.022;5.582;2024-03-23T09:21:54;9.00;99.90
67763;DHT22;54566;52.022;5.582;2024-03-23T09:24:44;9.30;99.90
67763;DHT22;54566;52.022;5.582;2024-03-23T09:27:15;9.50;99.90
67763;DHT22;54566;52.022;5.582;2024-03-23T09:30:06;9.60;99.90
67763;DHT22;54566;52.022;5.582;2024-03-23T09:32:49;9.80;99.90
67763;DHT22;54566;52.022;5.582;2024-03-23T09:35:20;9.90;99.90
67763;DHT22;54566;52.022;5.582;2024-03-23T09:38:03;10.20;99.90
67763;DHT22;54566;52.022;5.582;2024-03-23T09:40:57;10.10;98.20
67763;DHT22;54566;52.022;5.582;2024-03-23T09:46:30;9.70;99.90
67763;DHT22;54566;52.022;5.582;2024-03-23T09:49:09;9.00;99.90
67763;DHT22;54566;52.022;5.582;2024-03-23T09:51:54;8.60;99.90
67763;DHT22;54566;52.022;5.582;2024-03-23T09:54:26;8.30;99.90
67763;DHT22;54566;52.022;5.582;2024-03-23T09:57:18;8.30;99.90
67763;DHT22;54566;52.022;5.582;2024-03-23T09:59:46;8.50;99.90
67763;DHT22;54566;52.022;5.582;2024-03-23T10:05:58;9.10;99.90
67763;DHT22;54566;52.022;5.582;2024-03-23T10:21:18;9.00;99.90
67763;DHT22;54566;52.022;5.582;2024-03-23T10:23:55;9.40;99.90
67763;DHT22;54566;52.022;5.582;2024-03-23T10:26:42;9.80;99.90
67763;DHT22;54566;52.022;5.582;2024-03-23T10:29:19;10.00;99.90
67763;DHT22;54566;52.022;5.582;2024-03-23T10:32:15;10.20;99.90
67763;DHT22;54566;52.022;5.582;2024-03-23T10:34:46;9.90;99.90
67763;DHT22;54566;52.022;5.582;2024-03-23T10:37:28;9.60;98.00
67763;DHT22;54566;52.022;5.582;2024-03-23T10:40:09;9.30;99.90
67763;DHT22;54566;52.022;5.582;2024-03-23T10:43:03;9.20;99.70
67763;DHT22;54566;52.022;5.582;2024-03-23T10:45:49;9.00;96.30
67763;DHT22;54566;52.022;5.582;2024-03-23T10:48:41;8.80;99.90
67763;DHT22;54566;52.022;5.582;2024-03-23T10:51:09;9.00;99.90
67763;DHT22;54566;52.022;5.582;2024-03-23T10:56:47;9.50;99.90
67763;DHT22;54566;52.022;5.582;2024-03-23T10:59:19;9.90;96.70
67763;DHT22;54566;52.022;5.582;2024-03-23T11:02:07;10.40;99.90
67763;DHT22;54566;52.022;5.582;2024-03-23T11:05:05;10.80;95.10
67763;DHT22;54566;52.022;5.582;2024-03-23T11:07:56;10.70;90.50
67763;DHT22;54566;52.022;5.582;2024-03-23T11:10:35;10.10;99.90
67763;DHT22;54566;52.022;5.582;2024-03-23T11:13:31;9.80;99.90
67763;DHT22;54566;52.022;5.582;2024-03-23T11:16:15;9.70;99.90
67763;DHT22;54566;52.022;5.582;2024-03-23T11:18:46;9.80;99.90
67763;DHT22;54566;52.022;5.582;2024-03-23T11:35:36;9.60;99.90
67763;DHT22;54566;52.022;5.582;2024-03-23T11:44:37;8.90;99.90
67763;DHT22;54566;52.022;5.582;2024-03-23T11:47:14;8.80;99.90
67763;DHT22;54566;52.022;5.582;2024-03-23T11:49:59;8.60;99.90
67763;DHT22;54566;52.022;5.582;2024-03-23T11:56:08;8.30;99.90
67763;DHT22;54566;52.022;5.582;2024-03-23T11:59:10;8.40;99.90
67763;DHT22;54566;52.022;5.582;2024-03-23T12:53:46;10.10;98.40
67763;DHT22;54566;52.022;5.582;2024-03-23T12:56:20;9.90;94.00
67763;DHT22;54566;52.022;5.582;2024-03-23T12:58:47;9.90;97.60
67763;DHT22;54566;52.022;5.582;2024-03-23T13:01:20;9.80;97.70
67763;DHT22;54566;52.022;5.582;2024-03-23T13:03:49;9.60;87.90
67763;DHT22;54566;52.022;5.582;2024-03-23T13:06:18;9.70;93.70
67763;DHT22;54566;52.022;5.582;2024-03-23T13:08:45;9.50;95.10
67763;DHT22;54566;52.022;5.582;2024-03-23T13:11:15;9.60;98.20
67763;DHT22;54566;52.022;5.582;2024-03-23T13:13:50;10.00;95.30
67763;DHT22;54566;52.022;5.582;2024-03-23T13:16:16;10.60;92.10
67763;DHT22;54566;52.022;5.582;2024-03-23T13:18:42;10.50;91.10
67763;DHT22;54566;52.022;5.582;2024-03-23T13:23:46;10.90;82.00
67763;DHT22;54566;52.022;5.582;2024-03-23T13:26:13;11.10;93.40
67763;DHT22;54566;52.022;5.582;2024-03-23T13:28:39;11.20;83.80
67763;DHT22;54566;52.022;5.582;2024-03-23T13:31:05;11.30;94.50
67763;DHT22;54566;52.022;5.582;2024-03-23T13:33:31;11.30;90.20
67763;DHT22;54566;52.022;5.582;2024-03-23T13:35:59;11.20;96.50
67763;DHT22;54566;52.022;5.582;2024-03-23T13:38:26;10.90;95.80
67763;DHT22;54566;52.022;5.582;2024-03-23T13:40:56;10.80;94.90
67763;DHT22;54566;52.022;5.582;2024-03-23T13:43:26;10.60;81.30
67763;DHT22;54566;52.022;5.582;2024-03-23T13:45:57;10.50;91.80
67763;DHT22;54566;52.022;5.582;2024-03-23T13:48:24;10.30;89.60
67763;DHT22;54566;52.022;5.582;2024-03-23T13:51:00;10.10;96.80
67763;DHT22;54566;52.022;5.582;2024-03-23T13:53:27;9.90;94.50
67763;DHT22;54566;52.022;5.582;2024-03-23T13:55:53;9.80;98.20
67763;DHT22;54566;52.022;5.582;2024-03-23T13:58:19;9.80;97.10
67763;DHT22;54566;52.022;5.582;2024-03-23T14:00:51;9.80;96.40
67763;DHT22;54566;52.022;5.582;2024-03-23T14:03:17;10.00;92.70
67763;DHT22;54566;52.022;5.582;2024-03-23T14:05:44;10.00;96.10
67763;DHT22;54566;52.022;5.582;2024-03-23T14:08:16;9.90;97.10
67763;DHT22;54566;52.022;5.582;2024-03-23T14:10:54;9.90;93.70
67763;DHT22;54566;52.022;5.582;2024-03-23T14:13:23;9.60;84.20
67763;DHT22;54566;52.022;5.582;2024-03-23T14:15:55;9.30;95.70
67763;DHT22;54566;52.022;5.582;2024-03-23T14:18:21;9.20;95.30
67763;DHT22;54566;52.022;5.582;2024-03-23T14:20:56;9.10;95.80
67763;DHT22;54566;52.022;5.582;2024-03-23T14:23:26;9.00;96.30
67763;DHT22;54566;52.022;5.582;2024-03-23T14:25:53;9.10;97.50
67763;DHT22;54566;52.022;5.582;2024-03-23T14:28:20;9.30;97.00
67763;DHT22;54566;52.022;5.582;2024-03-23T14:30:47;9.40;96.00
67763;DHT22;54566;52.022;5.582;2024-03-23T14:33:13;9.50;97.00
67763;DHT22;54566;52.022;5.582;2024-03-23T14:35:39;9.60;96.80
67763;DHT22;54566;52.022;5.582;2024-03-23T14:38:05;9.80;97.50
67763;DHT22;54566;52.022;5.582;2024-03-23T14:40:46;10.00;96.90
67763;DHT22;54566;52.022;5.582;2024-03-23T14:43:21;10.20;93.90
67763;DHT22;54566;52.022;5.582;2024-03-23T16:29:10;9.20;93.50
67763;DHT22;54566;52.022;5.582;2024-03-23T16:32:12;9.20;95.90
67763;DHT22;54566;52.022;5.582;2024-03-23T16:38:20;8.90;96.10
67763;DHT22;54566;52.022;5.582;2024-03-23T16:41:12;8.90;99.00
67763;DHT22;54566;52.022;5.582;2024-03-23T16:44:31;8.80;96.90
67763;DHT22;54566;52.022;5.582;2024-03-23T16:47:23;8.80;99.90
67763;DHT22;54566;52.022;5.582;2024-03-23T16:49:55;9.30;99.90
67763;DHT22;54566;52.022;5.582;2024-03-23T16:52:27;9.30;99.90
67763;DHT22;54566;52.022;5.582;2024-03-23T16:54:53;9.10;99.60
67763;DHT22;54566;52.022;5.582;2024-03-23T16:57:19;8.90;99.90
67763;DHT22;54566;52.022;5.582;2024-03-23T16:59:47;9.00;99.90
67763;DHT22;54566;52.022;5.582;2024-03-23T17:02:13;9.00;99.90
67763;DHT22;54566;52.022;5.582;2024-03-23T17:04:42;8.90;99.90
67763;DHT22;54566;52.022;5.582;2024-03-23T17:07:10;8.80;99.90
67763;DHT22;54566;52.022;5.582;2024-03-23T17:09:47;8.60;99.90
67763;DHT22;54566;52.022;5.582;2024-03-23T17:12:22;8.40;99.90
67763;DHT22;54566;52.022;5.582;2024-03-23T17:14:48;8.30;99.90
67763;DHT22;54566;52.022;5.582;2024-03-23T17:17:13;7.80;99.90
67763;DHT22;54566;52.022;5.582;2024-03-23T17:19:41;7.50;99.90
67763;DHT22;54566;52.022;5.582;2024-03-23T17:22:15;7.30;99.90
67763;DHT22;54566;52.022;5.582;2024-03-23T17:24:43;7.00;99.90
67763;DHT22;54566;52.022;5.582;2024-03-23T17:27:11;6.90;99.90
67763;DHT22;54566;52.022;5.582;2024-03-23T17:29:43;6.80;99.90
67763;DHT22;54566;52.022;5.582;2024-03-23T17:32:14;6.90;99.90
67763;DHT22;54566;52.022;5.582;2024-03-23T17:34:43;6.80;99.90
67763;DHT22;54566;52.022;5.582;2024-03-23T17:37:09;6.80;99.90
67763;DHT22;54566;52.022;5.582;2024-03-23T17:40:03;6.80;99.90
67763;DHT22;54566;52.022;5.582;2024-03-23T17:45:37;6.70;99.90
67763;DHT22;54566;52.022;5.582;2024-03-23T17:48:19;6.60;99.90
67763;DHT22;54566;52.022;5.582;2024-03-23T17:51:05;6.60;99.90
67763;DHT22;54566;52.022;5.582;2024-03-23T17:57:01;6.60;99.90
67763;DHT22;54566;52.022;5.582;2024-03-23T18:00:17;6.40;99.90
67763;DHT22;54566;52.022;5.582;2024-03-23T18:03:23;6.40;99.90
67763;DHT22;54566;52.022;5.582;2024-03-23T18:06:12;6.30;99.90
67763;DHT22;54566;52.022;5.582;2024-03-23T18:09:10;6.30;99.90
67763;DHT22;54566;52.022;5.582;2024-03-23T18:11:36;6.30;99.90
67763;DHT22;54566;52.022;5.582;2024-03-23T18:14:34;6.30;99.90
67763;DHT22;54566;52.022;5.582;2024-03-23T18:17:04;6.20;99.90
67763;DHT22;54566;52.022;5.582;2024-03-23T18:19:37;6.30;99.90
67763;DHT22;54566;52.022;5.582;2024-03-23T18:22:07;6.20;99.90
67763;DHT22;54566;52.022;5.582;2024-03-23T18:24:40;6.30;99.90
67763;DHT22;54566;52.022;5.582;2024-03-23T18:27:13;6.30;99.90
67763;DHT22;54566;52.022;5.582;2024-03-23T18:29:42;6.20;99.90
67763;DHT22;54566;52.022;5.582;2024-03-23T18:32:12;6.10;99.90
67763;DHT22;54566;52.022;5.582;2024-03-23T18:34:49;6.10;99.90
67763;DHT22;54566;52.022;5.582;2024-03-23T18:37:15;6.20;99.90
67763;DHT22;54566;52.022;5.582;2024-03-23T18:40:01;6.10;99.90
67763;DHT22;54566;52.022;5.582;2024-03-23T19:17:04;6.00;99.90
67763;DHT22;54566;52.022;5.582;2024-03-23T19:19:34;6.00;99.90
67763;DHT22;54566;52.022;5.582;2024-03-23T21:02:04;5.40;99.90
67763;DHT22;54566;52.022;5.582;2024-03-23T21:04:46;5.40;99.90
67763;DHT22;54566;52.022;5.582;2024-03-23T21:07:26;5.50;99.90
67763;DHT22;54566;52.022;5.582;2024-03-23T21:10:38;5.40;99.90
67763;DHT22;54566;52.022;5.582;2024-03-23T21:13:06;5.40;99.90
67763;DHT22;54566;52.022;5.582;2024-03-23T21:15:58;5.40;99.90
67763;DHT22;54566;52.022;5.582;2024-03-23T21:18:39;5.40;99.90
67763;DHT22;54566;52.022;5.582;2024-03-23T21:21:06;5.40;99.90
67763;DHT22;54566;52.022;5.582;2024-03-23T21:24:07;5.40;99.90
67763;DHT22;54566;52.022;5.582;2024-03-23T21:27:05;5.40;99.90
67763;DHT22;54566;52.022;5.582;2024-03-23T21:39:45;5.30;99.90
67763;DHT22;54566;52.022;5.582;2024-03-23T21:42:53;5.30;99.90
67763;DHT22;54566;52.022;5.582;2024-03-23T21:46:01;5.30;99.90
67763;DHT22;54566;52.022;5.582;2024-03-23T21:49:28;5.30;99.90
67763;DHT22;54566;52.022;5.582;2024-03-23T21:52:22;5.30;99.90
67763;DHT22;54566;52.022;5.582;2024-03-23T22:01:59;5.30;99.90
67763;DHT22;54566;52.022;5.582;2024-03-23T22:04:37;5.30;99.90
67763;DHT22;54566;52.022;5.582;2024-03-23T22:07:06;5.30;99.90
67763;DHT22;54566;52.022;5.582;2024-03-23T22:10:17;5.20;99.90
67763;DHT22;54566;52.022;5.582;2024-03-23T22:19:04;5.20;99.90
67763;DHT22;54566;52.022;5.582;2024-03-23T22:21:56;5.20;99.90
67763;DHT22;54566;52.022;5.582;2024-03-23T22:24:33;5.20;99.90
67763;DHT22;54566;52.022;5.582;2024-03-23T22:30:40;5.20;99.90
67763;DHT22;54566;52.022;5.582;2024-03-23T22:36:46;5.30;99.90
67763;DHT22;54566;52.022;5.582;2024-03-23T22:39:24;5.30;99.90
67763;DHT22;54566;52.022;5.582;2024-03-23T22:41:53;5.30;99.90
67763;DHT22;54566;52.022;5.582;2024-03-23T22:44:24;5.30;99.90
67763;DHT22;54566;52.022;5.582;2024-03-23T22:46:51;5.30;99.90
67763;DHT22;54566;52.022;5.582;2024-03-23T22:49:17;5.30;99.90
67763;DHT22;54566;52.022;5.582;2024-03-23T22:51:45;5.40;99.90
67763;DHT22;54566;52.022;5.582;2024-03-23T22:54:13;5.40;99.90
67763;DHT22;54566;52.022;5.582;2024-03-23T22:56:39;5.40;99.90
67763;DHT22;54566;52.022;5.582;2024-03-23T22:59:16;5.40;99.90
67763;DHT22;54566;52.022;5.582;2024-03-23T23:01:43;5.40;99.90
67763;DHT22;54566;52.022;5.582;2024-03-23T23:04:14;5.30;99.90
67763;DHT22;54566;52.022;5.582;2024-03-23T23:06:46;5.30;99.90
67763;DHT22;54566;52.022;5.582;2024-03-23T23:09:18;5.30;99.90
67763;DHT22;54566;52.022;5.582;2024-03-23T23:11:50;5.30;99.90
67763;DHT22;54566;52.022;5.582;2024-03-23T23:14:16;5.30;99.90
67763;DHT22;54566;52.022;5.582;2024-03-23T23:16:50;5.30;99.90
67763;DHT22;54566;52.022;5.582;2024-03-23T23:19:21;5.30;99.90
67763;DHT22;54566;52.022;5.582;2024-03-23T23:21:47;5.30;99.90
67763;DHT22;54566;52.022;5.582;2024-03-23T23:24:16;5.30;99.90
67763;DHT22;54566;52.022;5.582;2024-03-23T23:26:42;5.20;99.90
67763;DHT22;54566;52.022;5.582;2024-03-23T23:29:08;5.20;99.90
67763;DHT22;54566;52.022;5.582;2024-03-23T23:31:54;5.20;99.90
67763;DHT22;54566;52.022;5.582;2024-03-23T23:34:20;5.20;99.90
67763;DHT22;54566;52.022;5.582;2024-03-23T23:36:47;5.30;99.90
67763;DHT22;54566;52.022;5.582;2024-03-23T23:39:13;5.30;99.90
67763;DHT22;54566;52.022;5.582;2024-03-23T23:41:54;5.30;99.90
67763;DHT22;54566;52.022;5.582;2024-03-23T23:44:23;5.30;99.90
67763;DHT22;54566;52.022;5.582;2024-03-23T23:46:49;5.40;99.90
67763;DHT22;54566;52.022;5.582;2024-03-23T23:49:15;5.40;99.90
67763;DHT22;54566;52.022;5.582;2024-03-23T23:51:44;5.40;99.90
67763;DHT22;54566;52.022;5.582;2024-03-23T23:54:10;5.40;99.90
67763;DHT22;54566;52.022;5.582;2024-03-23T23:56:36;5.40;99.90
67763;DHT22;54566;52.022;5.582;2024-03-23T23:59:07;5.50;99.90
